Time;durP1;ratioP1;P1;durP2;ratioP2;P2;SDS_P1;SDS_P2;PMS_P1;PMS_P2;Temp;Humidity;BMP_temperature;BMP_pressure;BME280_temperature;BME280_humidity;BME280_pressure;Samples;Min_cycle;Max_cycle;Signal;HPM_P1;HPM_P2
2023/04/04 00:01:42;;;;;;;7.03;2.30;;;;;;;-0.47;62.82;101050.06;4224244;28;20673;-63
2023/04/04 00:04:09;;;;;;;6.57;2.77;;;;;;;-0.50;62.63;101048.41;4228679;28;20361;-64
2023/04/04 00:06:36;;;;;;;15.57;2.90;;;;;;;-0.75;63.65;101049.38;4221388;28;20618;-63
2023/04/04 00:09:03;;;;;;;9.30;2.20;;;;;;;-0.77;63.93;101059.19;4211574;28;20227;-63
2023/04/04 00:11:29;;;;;;;6.33;2.77;;;;;;;-0.81;63.94;101046.94;4221181;28;22290;-63
2023/04/04 00:13:56;;;;;;;7.03;2.80;;;;;;;-0.88;64.51;101048.97;4222140;28;21227;-64
2023/04/04 00:16:23;;;;;;;4.30;2.50;;;;;;;-0.91;64.71;101053.53;4221712;28;20972;-65
2023/04/04 00:18:49;;;;;;;6.43;2.53;;;;;;;-0.97;65.00;101036.03;4209114;28;20265;-66
2023/04/04 00:21:16;;;;;;;8.20;2.93;;;;;;;-1.02;65.38;101043.31;4217670;28;21025;-64
2023/04/04 00:23:43;;;;;;;8.63;2.70;;;;;;;-1.03;65.09;101041.56;4224686;28;22984;-64
2023/04/04 00:26:10;;;;;;;6.17;2.73;;;;;;;-1.00;65.43;101034.34;4215674;28;20246;-66
2023/04/04 00:28:36;;;;;;;9.43;3.27;;;;;;;-1.05;65.53;101030.13;4218261;28;20226;-63
2023/04/04 00:31:03;;;;;;;6.13;2.73;;;;;;;-1.00;65.61;101025.53;4217713;28;21085;-65
2023/04/04 00:33:29;;;;;;;8.23;2.43;;;;;;;-1.13;66.02;101031.28;4209900;28;23907;-66
2023/04/04 00:35:56;;;;;;;7.07;2.47;;;;;;;-1.24;66.54;101025.53;4221440;28;20238;-64
2023/04/04 00:38:23;;;;;;;8.40;2.77;;;;;;;-1.26;66.32;101030.03;4225163;28;20392;-64
2023/04/04 00:40:50;;;;;;;6.07;2.70;;;;;;;-1.29;66.75;101027.50;4215929;28;20274;-66
2023/04/04 00:43:17;;;;;;;6.87;2.87;;;;;;;-1.34;66.84;101026.78;4212389;28;20238;-63
2023/04/04 00:45:45;;;;;;;13.77;3.00;;;;;;;-1.33;66.93;101023.19;4201497;28;20231;-65
2023/04/04 00:48:12;;;;;;;10.97;2.90;;;;;;;-1.32;66.66;101020.47;4221437;28;20324;-65
2023/04/04 00:50:38;;;;;;;7.47;2.67;;;;;;;-1.34;66.90;101019.69;4226791;28;20606;-64
2023/04/04 00:53:05;;;;;;;5.60;2.70;;;;;;;-1.38;67.26;101011.91;4225404;28;20333;-65
2023/04/04 00:55:32;;;;;;;6.83;2.77;;;;;;;-1.32;66.77;101011.66;4219745;28;20298;-63
2023/04/04 00:57:59;;;;;;;8.33;2.63;;;;;;;-1.38;67.19;101009.25;4220906;28;20302;-65
2023/04/04 01:00:26;;;;;;;13.73;2.90;;;;;;;-1.64;68.18;101003.06;4206289;28;20235;-64
2023/04/04 01:02:52;;;;;;;11.80;2.87;;;;;;;-1.53;67.95;101002.69;4221732;28;20293;-65
2023/04/04 01:05:19;;;;;;;12.73;3.07;;;;;;;-1.63;68.15;101000.38;4226888;28;20258;-64
2023/04/04 01:07:46;;;;;;;10.70;3.00;;;;;;;-1.53;67.95;100994.72;4223042;28;20237;-65
2023/04/04 01:10:13;;;;;;;10.60;2.73;;;;;;;-1.62;68.68;100995.94;4225332;28;20312;-65
2023/04/04 01:12:40;;;;;;;10.33;2.70;;;;;;;-1.78;69.23;100991.16;4217291;28;20320;-65
2023/04/04 01:15:08;;;;;;;7.37;2.97;;;;;;;-1.97;69.68;100975.03;4222420;28;21496;-64
2023/04/04 01:17:36;;;;;;;8.13;2.87;;;;;;;-1.71;69.20;100980.31;4225162;28;20338;-60
2023/04/04 01:20:15;;;;;;;15.93;3.47;;;;;;;-1.73;69.25;100985.69;4222569;28;22012;-65
2023/04/04 01:22:42;;;;;;;13.10;2.80;;;;;;;-1.83;69.62;100978.97;4216125;28;21655;-62
2023/04/04 01:25:10;;;;;;;6.37;2.53;;;;;;;-1.80;69.90;100977.06;4227442;28;20424;-64
2023/04/04 01:27:37;;;;;;;12.07;3.20;;;;;;;-1.95;70.43;100974.97;4214128;28;20296;-65
2023/04/04 01:30:05;;;;;;;7.53;2.40;;;;;;;-1.97;70.41;100977.69;4219553;28;22865;-62
2023/04/04 01:32:32;;;;;;;9.43;3.00;;;;;;;-1.98;70.79;100973.28;4226129;28;20632;-65
2023/04/04 01:35:08;;;;;;;8.30;2.93;;;;;;;-1.89;70.55;100976.53;4222976;28;21295;-63
2023/04/04 01:37:43;;;;;;;7.23;2.93;;;;;;;-1.89;70.50;100972.13;4204678;28;20298;-66
2023/04/04 01:40:20;;;;;;;9.93;2.80;;;;;;;-2.07;71.00;100974.50;4214833;28;20337;-62
2023/04/04 01:42:48;;;;;;;9.27;2.80;;;;;;;-2.05;71.21;100977.09;4217438;28;20474;-63
2023/04/04 01:45:14;;;;;;;9.37;3.03;;;;;;;-2.12;71.04;100957.00;4223216;28;20286;-64
2023/04/04 01:47:42;;;;;;;11.07;2.77;;;;;;;-2.14;71.88;100972.97;4224092;28;25867;-61
2023/04/04 01:50:09;;;;;;;9.20;2.90;;;;;;;-2.09;71.56;100965.72;4224509;28;22948;-63
2023/04/04 01:52:37;;;;;;;6.70;2.60;;;;;;;-2.09;71.39;100971.00;4219830;28;20243;-64
2023/04/04 01:55:04;;;;;;;8.30;3.00;;;;;;;-1.98;71.12;100964.47;4213711;28;20239;-65
2023/04/04 01:57:30;;;;;;;8.63;2.83;;;;;;;-2.14;71.74;100972.09;4221909;28;20349;-64
2023/04/04 01:59:57;;;;;;;7.53;3.03;;;;;;;-2.11;71.77;100977.31;4217441;28;20303;-62
2023/04/04 02:02:23;;;;;;;13.60;3.10;;;;;;;-2.09;71.55;100970.16;4222148;28;20269;-63
2023/04/04 02:04:51;;;;;;;12.40;3.27;;;;;;;-2.26;71.86;100968.06;4232553;28;20545;-65
2023/04/04 02:07:18;;;;;;;12.77;3.10;;;;;;;-2.31;72.70;100977.97;4219322;28;20588;-63
2023/04/04 02:09:44;;;;;;;5.87;2.70;;;;;;;-2.19;72.63;100972.25;4203744;28;20232;-63
2023/04/04 02:12:11;;;;;;;12.03;2.83;;;;;;;-2.04;72.04;100975.31;4229156;28;20611;-62
2023/04/04 02:14:38;;;;;;;9.37;3.23;;;;;;;-2.03;71.85;100971.72;4226770;28;20418;-65
2023/04/04 02:17:05;;;;;;;6.10;2.67;;;;;;;-2.16;72.07;100968.66;4229659;28;20232;-63
2023/04/04 02:19:32;;;;;;;11.00;3.40;;;;;;;-2.28;72.47;100977.88;4222901;28;20308;-65
2023/04/04 02:21:59;;;;;;;12.77;3.40;;;;;;;-2.28;73.00;100964.63;4226852;28;21575;-65
2023/04/04 02:24:25;;;;;;;9.17;3.10;;;;;;;-2.24;72.60;100972.44;4227453;28;20232;-65
2023/04/04 02:26:52;;;;;;;10.70;3.00;;;;;;;-2.23;72.62;100973.28;4218226;28;26026;-63
2023/04/04 02:29:18;;;;;;;9.97;3.60;;;;;;;-2.25;72.95;100969.81;4221098;28;20250;-63
2023/04/04 02:31:45;;;;;;;7.40;3.07;;;;;;;-2.44;73.47;100980.16;4228083;28;20420;-63
2023/04/04 02:34:11;;;;;;;7.93;2.77;;;;;;;-2.51;73.69;100974.22;4227247;28;20251;-62
2023/04/04 02:36:38;;;;;;;10.50;3.23;;;;;;;-2.44;73.32;100977.50;4227661;28;20254;-63
2023/04/04 02:39:04;;;;;;;6.27;3.00;;;;;;;-2.46;73.47;100971.41;4225178;28;20259;-64
2023/04/04 02:41:31;;;;;;;11.30;2.93;;;;;;;-2.47;73.30;100974.97;4229836;28;20306;-64
2023/04/04 02:43:58;;;;;;;10.97;3.57;;;;;;;-2.42;73.78;100978.34;4206647;28;20304;-64
2023/04/04 02:46:24;;;;;;;9.23;3.67;;;;;;;-2.45;73.64;100974.00;4232603;28;20234;-65
2023/04/04 02:48:50;;;;;;;10.87;3.43;;;;;;;-2.46;73.71;100972.28;4224248;28;20274;-65
2023/04/04 02:51:17;;;;;;;12.57;3.73;;;;;;;-2.49;73.67;100968.84;4230426;28;20238;-65
2023/04/04 02:53:44;;;;;;;10.47;3.20;;;;;;;-2.64;74.37;100980.84;4224427;28;21361;-65
2023/04/04 02:56:11;;;;;;;6.53;2.80;;;;;;;-2.57;74.16;100977.94;4222311;28;20401;-62
2023/04/04 02:58:37;;;;;;;10.73;3.23;;;;;;;-2.57;74.01;100977.94;4232621;28;20239;-65
2023/04/04 03:01:06;;;;;;;8.90;3.20;;;;;;;-2.62;74.40;100986.94;4221318;28;20303;-65
2023/04/04 03:03:33;;;;;;;9.03;3.07;;;;;;;-2.55;74.20;100983.16;4223466;28;20242;-64
2023/04/04 03:06:00;;;;;;;15.13;3.93;;;;;;;-2.48;73.95;100984.69;4224603;28;20247;-63
2023/04/04 03:08:27;;;;;;;8.43;2.83;;;;;;;-2.44;73.62;100986.34;4223147;28;20227;-65
2023/04/04 03:10:53;;;;;;;10.80;2.63;;;;;;;-2.61;74.15;100981.59;4226953;28;22302;-63
2023/04/04 03:13:20;;;;;;;10.73;3.03;;;;;;;-2.62;74.32;100986.94;4224635;28;20327;-65
2023/04/04 03:15:48;;;;;;;7.23;3.03;;;;;;;-2.63;74.38;100995.78;4223957;28;22862;-64
2023/04/04 03:18:15;;;;;;;14.17;3.40;;;;;;;-2.77;74.69;100977.72;4220027;28;20588;-64
2023/04/04 03:20:41;;;;;;;9.47;3.03;;;;;;;-2.73;74.67;100989.94;4224583;28;20247;-63
2023/04/04 03:23:08;;;;;;;8.57;3.20;;;;;;;-2.69;74.80;100983.63;4234041;28;20231;-64
2023/04/04 03:25:35;;;;;;;11.37;3.43;;;;;;;-2.65;74.72;100987.06;4225149;28;20430;-64
2023/04/04 03:28:08;;;;;;;8.20;3.60;;;;;;;-2.61;74.83;100975.41;4225159;28;20247;-66
2023/04/04 03:30:35;;;;;;;6.67;2.87;;;;;;;-2.72;75.19;100976.63;4225599;28;20239;-65
2023/04/04 03:33:08;;;;;;;12.53;3.63;;;;;;;-2.62;74.91;100976.34;4225230;28;20589;-66
2023/04/04 03:35:38;;;;;;;10.10;3.47;;;;;;;-2.67;75.05;100981.78;4226545;28;22329;-63
2023/04/04 03:38:05;;;;;;;9.13;3.80;;;;;;;-2.74;75.38;100967.88;4232425;28;20245;-63
2023/04/04 03:40:32;;;;;;;13.87;3.47;;;;;;;-2.67;74.97;100972.97;4231283;28;20235;-64
2023/04/04 03:43:01;;;;;;;9.83;2.80;;;;;;;-2.73;75.56;100977.56;4231190;28;22390;-64
2023/04/04 03:45:31;;;;;;;6.60;2.80;;;;;;;-2.76;75.33;100968.84;4227460;28;20421;-64
2023/04/04 03:47:58;;;;;;;10.97;3.20;;;;;;;-2.69;74.72;100980.09;4216615;28;21180;-63
2023/04/04 03:50:24;;;;;;;8.33;3.00;;;;;;;-2.66;74.99;100974.72;4226884;28;20336;-63
2023/04/04 03:52:51;;;;;;;8.67;3.13;;;;;;;-2.74;75.24;100980.25;4216683;28;20323;-63
2023/04/04 03:55:17;;;;;;;9.00;3.00;;;;;;;-2.72;75.27;100983.72;4225819;28;20240;-61
2023/04/04 03:57:44;;;;;;;9.63;3.30;;;;;;;-2.76;75.70;100985.59;4222142;28;20299;-64
2023/04/04 04:00:11;;;;;;;9.93;3.37;;;;;;;-2.65;75.29;100979.94;4229274;28;20239;-65
2023/04/04 04:02:38;;;;;;;7.60;3.10;;;;;;;-2.73;75.26;100976.69;4227746;28;20366;-65
2023/04/04 04:05:05;;;;;;;10.73;3.20;;;;;;;-2.62;75.20;100978.97;4222974;28;20587;-65
2023/04/04 04:07:31;;;;;;;9.93;3.50;;;;;;;-2.66;74.96;100975.56;4225798;28;20247;-66
2023/04/04 04:09:58;;;;;;;10.40;3.40;;;;;;;-2.73;75.06;100976.69;4222345;28;20242;-63
2023/04/04 04:12:25;;;;;;;8.23;3.03;;;;;;;-2.82;75.87;100982.25;4229762;28;20226;-65
2023/04/04 04:14:51;;;;;;;9.57;3.27;;;;;;;-2.93;76.25;100983.47;4222570;28;20298;-63
2023/04/04 04:17:18;;;;;;;9.73;3.03;;;;;;;-3.11;76.79;100979.63;4239565;28;22750;-62
2023/04/04 04:19:45;;;;;;;14.97;3.67;;;;;;;-3.06;76.94;100985.63;4228356;28;20297;-65
2023/04/04 04:22:12;;;;;;;16.50;5.90;;;;;;;-3.07;76.98;100983.03;4232808;28;20314;-66
2023/04/04 04:24:38;;;;;;;12.93;3.90;;;;;;;-3.19;77.68;100982.47;4228703;28;20235;-65
2023/04/04 04:27:05;;;;;;;17.57;3.93;;;;;;;-3.19;78.26;100985.13;4230943;28;21657;-65
2023/04/04 04:29:32;;;;;;;13.13;3.70;;;;;;;-3.30;78.37;100978.41;4236237;28;21428;-64
2023/04/04 04:32:00;;;;;;;16.83;4.27;;;;;;;-3.23;78.33;100982.63;4239870;28;20250;-64
2023/04/04 04:34:27;;;;;;;15.27;4.03;;;;;;;-3.15;77.90;100979.75;4254493;28;20325;-64
2023/04/04 04:36:54;;;;;;;15.17;5.00;;;;;;;-3.07;77.86;100978.59;4223470;28;20632;-65
2023/04/04 04:39:21;;;;;;;22.13;5.37;;;;;;;-2.91;77.64;100980.78;4256898;28;20231;-66
2023/04/04 04:41:47;;;;;;;14.43;5.40;;;;;;;-2.95;77.33;100969.41;4235155;28;20231;-65
2023/04/04 04:44:14;;;;;;;14.07;5.57;;;;;;;-2.95;77.68;100969.41;4230301;28;20281;-64
2023/04/04 04:46:41;;;;;;;18.07;4.90;;;;;;;-2.90;77.53;100977.22;4225277;28;20250;-65
2023/04/04 04:49:08;;;;;;;24.37;4.50;;;;;;;-2.68;76.77;100974.75;4236890;28;20486;-64
2023/04/04 04:51:34;;;;;;;17.90;4.60;;;;;;;-2.59;76.31;100970.94;4237406;28;20301;-64
2023/04/04 04:54:01;;;;;;;16.47;4.70;;;;;;;-2.80;76.86;100968.06;4219474;28;20898;-65
2023/04/04 04:56:28;;;;;;;15.90;6.47;;;;;;;-2.62;76.19;100968.38;4221303;28;20405;-64
2023/04/04 04:58:55;;;;;;;17.27;4.63;;;;;;;-2.73;76.61;100974.91;4226396;28;20338;-64
2023/04/04 05:01:21;;;;;;;12.20;4.27;;;;;;;-2.81;76.42;100968.09;4210797;28;21745;-66
2023/04/04 05:03:48;;;;;;;15.30;4.00;;;;;;;-2.75;76.85;100963.50;4224929;28;20712;-65
2023/04/04 05:06:18;;;;;;;10.87;4.50;;;;;;;-2.62;76.01;100966.63;4217021;28;20282;-63
2023/04/04 05:08:44;;;;;;;14.43;4.07;;;;;;;-2.41;75.92;100954.41;4205049;28;23004;-64
2023/04/04 05:11:11;;;;;;;11.93;3.80;;;;;;;-2.06;75.00;100967.38;4228271;28;20537;-65
2023/04/04 05:13:39;;;;;;;13.20;3.87;;;;;;;-2.17;74.47;100975.72;4235788;28;20298;-63
2023/04/04 05:16:05;;;;;;;9.10;3.50;;;;;;;-1.91;73.13;100966.84;4240090;28;21142;-64
2023/04/04 05:18:32;;;;;;;14.23;3.63;;;;;;;-1.82;73.07;100962.13;4229404;28;21749;-65
2023/04/04 05:20:59;;;;;;;7.17;2.90;;;;;;;-1.84;73.03;100963.97;4226402;28;20239;-64
2023/04/04 05:23:26;;;;;;;12.17;3.50;;;;;;;-1.34;71.62;100968.34;4230949;28;21365;-65
2023/04/04 05:25:52;;;;;;;9.77;3.47;;;;;;;-1.45;71.40;100969.63;4219628;28;20539;-64
2023/04/04 05:28:23;;;;;;;9.33;3.40;;;;;;;-1.27;71.33;100964.53;4231048;28;21651;-65
2023/04/04 05:30:50;;;;;;;8.87;3.07;;;;;;;-1.24;71.28;100961.78;4227819;28;20365;-67
2023/04/04 05:33:16;;;;;;;9.10;2.90;;;;;;;-1.41;70.64;100970.38;4232193;28;20299;-64
2023/04/04 05:35:47;;;;;;;10.30;3.20;;;;;;;-1.49;71.19;100970.66;4239591;28;20596;-64
2023/04/04 05:38:14;;;;;;;10.50;3.17;;;;;;;-1.44;70.86;100975.81;4226951;28;20235;-65
2023/04/04 05:40:40;;;;;;;13.20;2.80;;;;;;;-1.55;71.18;100980.66;4236244;28;20238;-63
2023/04/04 05:43:08;;;;;;;8.87;3.23;;;;;;;-1.48;71.24;100982.16;4274359;28;21901;-64
2023/04/04 05:45:35;;;;;;;11.70;3.00;;;;;;;-1.32;70.61;100970.00;4272440;28;20591;-64
2023/04/04 05:48:04;;;;;;;7.53;2.60;;;;;;;-1.13;70.14;100964.00;4230033;28;20297;-67
2023/04/04 05:50:30;;;;;;;10.40;2.83;;;;;;;-0.96;70.16;100972.19;4261124;28;21781;-66
2023/04/04 05:52:57;;;;;;;14.90;3.10;;;;;;;-0.86;69.69;100970.03;4248221;28;20239;-63
2023/04/04 05:55:24;;;;;;;11.80;2.87;;;;;;;-0.65;68.73;100967.44;4243660;28;20228;-64
2023/04/04 05:57:50;;;;;;;10.43;3.20;;;;;;;-0.60;68.41;100972.56;4265414;28;22460;-64
2023/04/04 06:00:18;;;;;;;8.27;3.07;;;;;;;-0.84;68.36;100978.81;4241892;28;20502;-65
2023/04/04 06:02:44;;;;;;;9.70;3.03;;;;;;;-0.72;68.50;100979.25;4232801;28;20234;-65
2023/04/04 06:05:11;;;;;;;8.97;2.73;;;;;;;-0.47;67.96;100971.13;4251532;28;20231;-66
2023/04/04 06:07:38;;;;;;;11.07;3.00;;;;;;;-0.45;67.50;100968.44;4232830;28;21057;-65
2023/04/04 06:10:06;;;;;;;11.03;2.90;;;;;;;-0.42;67.53;100970.94;4234668;28;22031;-66
2023/04/04 06:12:32;;;;;;;8.60;2.70;;;;;;;-0.24;67.38;100961.31;4218211;28;22750;-65
2023/04/04 06:14:59;;;;;;;9.93;3.17;;;;;;;-0.41;67.17;100960.22;4242585;28;22317;-66
2023/04/04 06:17:26;;;;;;;8.40;3.13;;;;;;;-0.21;66.70;100961.22;4230433;28;22004;-65
2023/04/04 06:19:54;;;;;;;7.20;2.93;;;;;;;-0.28;66.42;100957.94;4235731;28;20598;-68
2023/04/04 06:22:20;;;;;;;9.20;3.00;;;;;;;-0.26;66.51;100955.19;4227805;28;22270;-62
2023/04/04 06:24:47;;;;;;;8.53;2.80;;;;;;;-0.07;66.20;100957.94;4231600;28;20771;-69
2023/04/04 06:27:14;;;;;;;6.83;3.10;;;;;;;-0.01;65.42;100958.56;4223916;28;20235;-66
2023/04/04 06:29:41;;;;;;;12.07;2.87;;;;;;;0.14;66.35;100958.81;4226927;28;21076;-65
2023/04/04 06:32:08;;;;;;;7.63;2.83;;;;;;;-0.15;65.23;100949.44;4243798;28;20318;-67
2023/04/04 06:34:34;;;;;;;11.10;2.80;;;;;;;-0.20;65.81;100946.97;4229690;28;20237;-66
2023/04/04 06:37:02;;;;;;;12.23;3.37;;;;;;;0.02;65.25;100949.56;4219314;28;20234;-66
2023/04/04 06:39:30;;;;;;;9.90;3.53;;;;;;;0.24;65.12;100945.94;4235322;28;21742;-64
2023/04/04 06:41:57;;;;;;;9.23;3.33;;;;;;;0.42;64.39;100954.91;4240394;28;22073;-63
2023/04/04 06:44:23;;;;;;;12.67;3.63;;;;;;;0.23;64.29;100950.41;4230505;28;20293;-64
2023/04/04 06:46:50;;;;;;;15.43;3.23;;;;;;;0.46;63.67;100938.72;4230389;28;23064;-66
2023/04/04 06:49:16;;;;;;;7.77;3.27;;;;;;;0.80;62.92;100946.94;4228923;28;20235;-66
2023/04/04 06:51:43;;;;;;;7.60;2.67;;;;;;;0.96;62.88;100944.44;4219225;28;20912;-66
2023/04/04 06:54:10;;;;;;;7.27;3.23;;;;;;;0.45;63.36;100934.31;4229555;28;20550;-67
2023/04/04 06:56:37;;;;;;;10.60;3.43;;;;;;;0.68;63.06;100940.38;4230807;28;20302;-65
2023/04/04 06:59:04;;;;;;;11.97;3.40;;;;;;;1.31;61.72;100935.66;4242851;28;23758;-67
2023/04/04 07:01:34;;;;;;;9.67;2.90;;;;;;;1.82;59.23;100936.66;4238510;28;20428;-66
2023/04/04 07:04:01;;;;;;;11.37;3.57;;;;;;;1.89;59.80;100939.84;4256926;28;21158;-66
2023/04/04 07:06:30;;;;;;;8.30;3.23;;;;;;;3.10;57.11;100936.06;4275409;28;21191;-66
2023/04/04 07:08:56;;;;;;;6.83;3.00;;;;;;;5.46;52.25;100930.63;4248595;28;20244;-64
2023/04/04 07:11:23;;;;;;;9.03;2.60;;;;;;;6.47;45.95;100925.53;4226183;28;20708;-66
2023/04/04 07:13:50;;;;;;;9.00;3.10;;;;;;;6.36;46.63;100930.78;4245963;28;20233;-65
2023/04/04 07:16:16;;;;;;;8.93;3.30;;;;;;;9.15;40.36;100932.19;4261360;28;20308;-65
2023/04/04 07:18:43;;;;;;;6.83;2.93;;;;;;;9.89;37.21;100917.06;4270139;28;22495;-64
2023/04/04 07:21:10;;;;;;;8.33;3.07;;;;;;;11.64;33.84;100925.13;4282046;28;21196;-65
2023/04/04 07:23:37;;;;;;;9.80;2.97;;;;;;;12.20;32.83;100916.28;4276506;28;20338;-64
2023/04/04 07:26:04;;;;;;;12.97;2.80;;;;;;;14.32;29.51;100923.50;4239365;28;21417;-66
2023/04/04 07:28:31;;;;;;;6.33;2.63;;;;;;;15.98;27.24;100914.88;4243873;28;20239;-67
2023/04/04 07:31:00;;;;;;;6.83;2.50;;;;;;;12.82;30.42;100920.34;4208103;28;20354;-65
2023/04/04 07:33:27;;;;;;;5.27;2.30;;;;;;;11.95;32.75;100919.56;4241076;28;22886;-66
2023/04/04 07:35:54;;;;;;;10.50;2.50;;;;;;;8.87;37.59;100914.69;4256497;28;22351;-65
2023/04/04 07:38:21;;;;;;;9.30;2.83;;;;;;;8.03;39.81;100917.69;4265590;28;21407;-66
2023/04/04 07:40:49;;;;;;;6.47;2.67;;;;;;;6.02;43.72;100917.88;4252283;28;21135;-71
2023/04/04 07:43:16;;;;;;;6.63;2.50;;;;;;;4.68;47.93;100921.34;4299190;28;21717;-64
2023/04/04 07:45:42;;;;;;;8.07;2.83;;;;;;;5.72;46.81;100924.34;4279837;28;20522;-67
2023/04/04 07:48:10;;;;;;;9.37;2.70;;;;;;;7.30;42.56;100915.09;4331837;28;21170;-65
2023/04/04 07:50:36;;;;;;;9.20;3.20;;;;;;;6.44;44.31;100916.81;4247444;28;20427;-65
2023/04/04 07:53:03;;;;;;;7.73;3.07;;;;;;;6.22;45.02;100915.63;4249367;28;25945;-64
2023/04/04 07:55:30;;;;;;;9.60;3.10;;;;;;;4.91;47.46;100917.16;4236428;28;20579;-64
2023/04/04 07:57:57;;;;;;;11.80;2.97;;;;;;;4.39;49.97;100924.00;4236402;28;21099;-64
2023/04/04 08:00:25;;;;;;;8.77;2.70;;;;;;;4.95;48.28;100912.47;4266659;28;22893;-64
2023/04/04 08:02:53;;;;;;;6.27;2.30;;;;;;;5.78;46.70;100911.47;4224498;28;22256;-65
2023/04/04 08:05:20;;;;;;;9.90;3.80;;;;;;;7.62;43.01;100903.72;4246872;28;21038;-66
2023/04/04 08:07:47;;;;;;;9.20;2.60;;;;;;;9.71;38.28;100905.09;4268563;28;20322;-66
2023/04/04 08:10:16;;;;;;;6.73;2.43;;;;;;;10.78;36.51;100905.72;4274009;28;21881;-68
2023/04/04 08:12:44;;;;;;;6.87;2.60;;;;;;;11.81;33.70;100897.31;4280640;28;20398;-68
2023/04/04 08:15:11;;;;;;;6.93;2.50;;;;;;;10.07;36.59;100895.69;4277420;28;20327;-68
2023/04/04 08:17:38;;;;;;;10.33;2.60;;;;;;;12.61;32.69;100897.00;4258897;28;21605;-67
2023/04/04 08:20:05;;;;;;;6.77;2.43;;;;;;;9.61;36.39;100892.34;4262686;28;21808;-68
2023/04/04 08:22:32;;;;;;;10.10;3.17;;;;;;;9.73;37.06;100903.97;4276114;28;20264;-66
2023/04/04 08:24:59;;;;;;;7.03;2.70;;;;;;;8.79;38.39;100884.75;4259629;28;20679;-65
2023/04/04 08:27:26;;;;;;;9.17;2.70;;;;;;;8.84;39.17;100893.31;4266184;28;20240;-66
2023/04/04 08:29:53;;;;;;;7.63;2.63;;;;;;;8.18;39.26;100889.53;4224712;28;20237;-73
2023/04/04 08:32:21;;;;;;;9.37;2.90;;;;;;;7.53;40.87;100890.94;4338851;28;20227;-62
2023/04/04 08:34:48;;;;;;;7.40;2.40;;;;;;;7.32;41.61;100899.69;4366708;28;20244;-67
2023/04/04 08:37:15;;;;;;;5.00;2.20;;;;;;;6.39;41.21;100890.25;4292691;28;20350;-67
2023/04/04 08:39:42;;;;;;;8.17;2.70;;;;;;;6.79;41.58;100883.81;4247387;28;22979;-66
2023/04/04 08:42:10;;;;;;;7.67;2.80;;;;;;;7.58;41.56;100880.66;4250750;28;21766;-66
2023/04/04 08:44:39;;;;;;;7.93;2.60;;;;;;;7.78;40.58;100889.91;4236304;28;21159;-68
2023/04/04 08:47:08;;;;;;;7.33;2.70;;;;;;;6.96;41.25;100886.13;4241951;28;20576;-63
2023/04/04 08:49:37;;;;;;;7.67;2.60;;;;;;;6.97;42.36;100892.38;4243157;28;20270;-65
2023/04/04 08:52:05;;;;;;;8.70;2.60;;;;;;;6.90;41.30;100883.03;4236251;28;20232;-64
2023/04/04 08:54:34;;;;;;;12.13;2.47;;;;;;;6.19;42.93;100880.88;4257816;28;22408;-64
2023/04/04 08:57:01;;;;;;;10.87;2.77;;;;;;;6.31;44.37;100887.22;4224889;28;20296;-65
2023/04/04 08:59:28;;;;;;;11.17;2.70;;;;;;;5.84;44.42;100879.66;4227828;28;20350;-64
2023/04/04 09:02:24;;;;;;;7.50;2.37;;;;;;;6.37;43.39;100884.09;4238185;28;20234;-66
2023/04/04 09:04:52;;;;;;;10.63;2.00;;;;;;;6.46;41.26;100879.88;4219556;28;20235;-64
2023/04/04 09:07:32;;;;;;;5.47;2.20;;;;;;;6.23;42.89;100879.69;4223512;28;20413;-63
2023/04/04 09:10:00;;;;;;;5.80;2.50;;;;;;;5.61;43.31;100883.94;4227843;28;20684;-64
2023/04/04 09:12:28;;;;;;;5.77;2.20;;;;;;;5.48;43.89;100873.16;4228410;28;20645;-65
2023/04/04 09:14:55;;;;;;;7.17;1.73;;;;;;;5.70;43.49;100883.28;4255201;28;20423;-66
2023/04/04 09:17:22;;;;;;;7.10;1.93;;;;;;;4.48;45.01;100872.50;4240213;28;20233;-66
2023/04/04 09:19:49;;;;;;;7.47;1.90;;;;;;;4.68;43.87;100873.06;4229606;28;21528;-74
2023/04/04 09:22:16;;;;;;;7.27;1.70;;;;;;;5.04;41.88;100882.34;4229304;28;20271;-67
2023/04/04 09:24:43;;;;;;;6.53;1.50;;;;;;;4.99;41.45;100877.28;4229288;28;21430;-66
2023/04/04 09:27:10;;;;;;;5.03;1.43;;;;;;;4.90;41.00;100873.41;4209852;28;21244;-65
2023/04/04 09:29:38;;;;;;;9.27;1.63;;;;;;;4.18;42.29;100880.66;4226919;28;22156;-68
2023/04/04 09:32:09;;;;;;;5.30;1.70;;;;;;;4.32;43.28;100885.13;4228428;28;20258;-67
2023/04/04 09:34:36;;;;;;;6.07;1.70;;;;;;;3.67;44.29;100883.72;4220007;28;20240;-69
2023/04/04 09:37:04;;;;;;;6.00;1.60;;;;;;;3.37;45.04;100877.41;4220166;28;20293;-78
2023/04/04 09:39:33;;;;;;;7.43;1.90;;;;;;;3.94;46.64;100879.38;4271791;28;20297;-66
2023/04/04 09:42:00;;;;;;;3.77;1.97;;;;;;;3.97;43.72;100870.28;4254550;28;21322;-65
2023/04/04 09:44:32;;;;;;;4.37;1.47;;;;;;;4.40;42.76;100874.78;4230728;28;20496;-67
2023/04/04 09:47:24;;;;;;;5.50;1.70;;;;;;;4.34;43.59;100870.72;4224954;28;20301;-67
2023/04/04 09:49:57;;;;;;;6.00;1.53;;;;;;;4.02;43.79;100873.56;4218579;28;20229;-67
2023/04/04 09:52:24;;;;;;;4.50;1.23;;;;;;;4.40;42.50;100869.44;4233767;28;20229;-65
2023/04/04 09:54:55;;;;;;;5.30;1.63;;;;;;;3.93;41.95;100872.28;4222635;28;20363;-67
2023/04/04 09:57:33;;;;;;;4.83;1.30;;;;;;;3.70;40.99;100876.38;4238479;28;20887;-66
2023/04/04 10:00:03;;;;;;;4.30;1.00;;;;;;;3.72;40.49;100873.59;4247240;28;23462;-65
2023/04/04 10:02:30;;;;;;;4.70;1.50;;;;;;;4.05;40.46;100868.00;4252580;28;20480;-66
2023/04/04 10:04:57;;;;;;;4.93;1.30;;;;;;;3.27;43.13;100871.75;4225325;28;21109;-67
2023/04/04 10:07:32;;;;;;;4.20;1.40;;;;;;;3.56;43.48;100869.16;4276995;28;21807;-67
2023/04/04 10:10:06;;;;;;;10.47;1.83;;;;;;;3.88;42.71;100874.41;4242631;28;24091;-69
2023/04/04 10:12:33;;;;;;;5.77;1.20;;;;;;;4.01;43.38;100873.63;4238373;28;20235;-68
2023/04/04 10:15:00;;;;;;;4.37;1.20;;;;;;;4.04;42.67;100876.13;4234502;28;20966;-66
2023/04/04 10:17:35;;;;;;;6.00;1.30;;;;;;;3.90;42.67;100869.81;4226082;28;20723;-67
2023/04/04 10:20:07;;;;;;;2.20;1.10;;;;;;;4.23;41.99;100878.53;4232053;28;21165;-65
2023/04/04 10:22:35;;;;;;;3.53;1.23;;;;;;;4.49;41.48;100881.41;4240774;28;20227;-65
2023/04/04 10:25:05;;;;;;;7.40;1.43;;;;;;;4.54;41.16;100877.47;4375825;28;20252;-66
2023/04/04 10:27:32;;;;;;;3.63;0.97;;;;;;;4.02;42.08;100870.88;4355249;28;20335;-64
2023/04/04 10:30:00;;;;;;;3.43;1.07;;;;;;;4.62;42.35;100873.44;4279107;28;20556;-67
2023/04/04 10:32:35;;;;;;;3.23;1.00;;;;;;;4.98;40.45;100870.19;4253036;28;20239;-65
2023/04/04 10:35:09;;;;;;;5.00;1.20;;;;;;;5.27;41.40;100867.41;4321058;28;20603;-65
2023/04/04 10:37:48;;;;;;;6.63;2.40;;;;;;;5.03;41.58;100873.44;4292413;28;25114;-66
2023/04/04 10:40:18;;;;;;;5.03;1.33;;;;;;;4.92;41.20;100867.91;4300638;28;20939;-63
2023/04/04 10:42:46;;;;;;;3.83;1.30;;;;;;;4.36;42.49;100878.63;4222412;28;20408;-64
2023/04/04 10:45:14;;;;;;;6.50;1.53;;;;;;;3.78;43.67;100860.72;4221376;28;20231;-65
2023/04/04 10:47:47;;;;;;;4.20;1.27;;;;;;;3.81;43.91;100860.50;4230228;28;20235;-64
2023/04/04 10:50:14;;;;;;;2.07;1.00;;;;;;;3.88;43.44;100863.69;4252338;28;20235;-66
2023/04/04 10:52:44;;;;;;;2.93;1.10;;;;;;;4.00;42.49;100863.91;4232031;28;22042;-65
2023/04/04 10:55:12;;;;;;;2.60;1.10;;;;;;;3.98;42.40;100861.28;4193571;28;20242;-63
2023/04/04 10:57:41;;;;;;;4.27;1.40;;;;;;;4.20;42.26;100865.31;4223630;28;20235;-66
2023/04/04 11:00:10;;;;;;;4.77;1.50;;;;;;;3.88;43.27;100858.31;4219038;28;20246;-65
2023/04/04 11:02:57;;;;;;;8.83;1.70;;;;;;;3.86;43.90;100857.56;4241873;28;21480;-66
2023/04/04 11:05:32;;;;;;;5.40;1.47;;;;;;;3.80;43.10;100857.94;4231497;28;20293;-66
2023/04/04 11:08:05;;;;;;;4.83;1.37;;;;;;;3.65;44.03;100847.19;4222013;28;20586;-67
2023/04/04 11:10:40;;;;;;;3.40;1.20;;;;;;;3.94;44.17;100860.63;4232971;28;21608;-66
2023/04/04 11:13:14;;;;;;;3.43;1.00;;;;;;;3.49;44.37;100859.78;4248799;28;20224;-69
2023/04/04 11:16:03;;;;;;;5.97;1.20;;;;;;;3.84;44.22;100858.59;4220358;28;20324;-65
2023/04/04 11:18:30;;;;;;;7.23;1.70;;;;;;;3.72;43.50;100852.19;4230831;28;22694;-63
2023/04/04 11:21:06;;;;;;;3.37;1.20;;;;;;;3.77;43.37;100856.31;4230239;28;20247;-63
2023/04/04 11:23:48;;;;;;;3.10;0.83;;;;;;;3.59;43.09;100847.56;4234946;28;20496;-64
2023/04/04 11:26:33;;;;;;;7.50;1.27;;;;;;;3.39;43.72;100847.91;4245067;28;20232;-63
2023/04/04 11:29:01;;;;;;;8.10;1.23;;;;;;;3.18;45.58;100861.56;4249643;28;20252;-65
2023/04/04 11:31:32;;;;;;;5.70;1.50;;;;;;;3.25;45.91;100860.25;4207724;28;20440;-66